createdAt,value
2019-02-05T00:00:57.213Z,91.20
2019-02-05T00:01:37.323Z,91.10
2019-02-05T00:02:12.552Z,90.80
2019-02-05T00:02:45.059Z,90.90
2019-02-05T00:03:21.268Z,90.70
2019-02-05T00:03:53.740Z,90.70
2019-02-05T00:04:26.445Z,90.50
2019-02-05T00:04:58.925Z,90.50
2019-02-05T00:05:32.180Z,90.70
2019-02-05T00:06:04.665Z,90.80
2019-02-05T00:06:37.161Z,90.50
2019-02-05T00:07:09.642Z,90.60
2019-02-05T00:07:42.135Z,90.70
2019-02-05T00:08:14.678Z,91.10
2019-02-05T00:08:47.170Z,91.00
2019-02-05T00:09:19.680Z,90.80
2019-02-05T00:09:52.179Z,90.70
2019-02-05T00:10:24.650Z,90.70
2019-02-05T00:10:57.147Z,90.70
2019-02-05T00:11:29.626Z,90.80
2019-02-05T00:12:02.995Z,90.80
2019-02-05T00:12:35.455Z,90.80
2019-02-05T00:13:08.330Z,90.70
2019-02-05T00:13:40.846Z,90.80
2019-02-05T00:14:13.324Z,90.70
2019-02-05T00:14:46.120Z,90.90
2019-02-05T00:15:21.802Z,90.90
2019-02-05T00:15:54.685Z,90.80
2019-02-05T00:16:27.166Z,90.70
2019-02-05T00:16:59.659Z,90.50
2019-02-05T00:17:32.486Z,90.40
2019-02-05T00:18:04.966Z,90.60
2019-02-05T00:18:37.858Z,90.70
2019-02-05T00:19:10.634Z,90.80
2019-02-05T00:19:43.119Z,90.80
2019-02-05T00:20:15.608Z,91.00
2019-02-05T00:20:48.147Z,91.10
2019-02-05T00:21:20.583Z,90.90
2019-02-05T00:21:53.064Z,90.60
2019-02-05T00:22:25.535Z,90.40
2019-02-05T00:22:58.351Z,90.40
2019-02-05T00:23:31.111Z,90.30
2019-02-05T00:24:04.010Z,90.40
2019-02-05T00:24:36.534Z,90.60
2019-02-05T00:25:09.330Z,90.60
2019-02-05T00:25:41.823Z,90.60
2019-02-05T00:26:14.911Z,90.40
2019-02-05T00:26:47.415Z,90.50
2019-02-05T00:27:20.631Z,90.70
2019-02-05T00:27:53.147Z,90.90
2019-02-05T00:28:25.635Z,90.60
2019-02-05T00:28:58.116Z,90.50
2019-02-05T00:29:30.604Z,90.50
2019-02-05T00:30:03.888Z,90.50
2019-02-05T00:30:36.380Z,90.60
2019-02-05T00:31:08.853Z,90.60
2019-02-05T00:31:41.637Z,90.30
2019-02-05T00:32:14.106Z,90.30
2019-02-05T00:32:46.888Z,90.30
2019-02-05T00:33:19.675Z,90.20
2019-02-05T00:33:52.501Z,90.00
2019-02-05T00:34:24.985Z,90.10
2019-02-05T00:34:57.459Z,90.20
2019-02-05T00:35:30.689Z,90.50
2019-02-05T00:36:03.649Z,90.70
2019-02-05T00:36:36.430Z,90.50
2019-02-05T00:37:08.906Z,90.60
2019-02-05T00:37:41.703Z,90.40
2019-02-05T00:38:14.181Z,90.10
2019-02-05T00:38:46.658Z,90.00
2019-02-05T00:39:19.146Z,90.10
2019-02-05T00:39:51.629Z,90.00
2019-02-05T00:40:24.763Z,90.10
2019-02-05T00:40:57.617Z,90.00
2019-02-05T00:41:30.120Z,90.00
2019-02-05T00:42:02.612Z,90.10
2019-02-05T00:42:35.114Z,90.20
2019-02-05T00:43:07.608Z,90.10
2019-02-05T00:43:40.080Z,90.20
2019-02-05T00:44:12.551Z,90.30
2019-02-05T00:44:45.386Z,90.10
2019-02-05T00:45:19.888Z,90.00
2019-02-05T00:45:52.642Z,90.10
2019-02-05T00:46:25.550Z,89.50
2019-02-05T00:46:58.038Z,89.90
2019-02-05T00:47:32.323Z,90.00
2019-02-05T00:48:04.958Z,89.90
2019-02-05T00:48:37.808Z,90.00
2019-02-05T00:49:10.938Z,90.00
2019-02-05T00:49:43.444Z,90.20
2019-02-05T00:50:17.030Z,90.10
2019-02-05T00:50:49.674Z,90.10
2019-02-05T00:51:22.454Z,90.20
2019-02-05T00:51:55.254Z,90.00
2019-02-05T00:52:27.731Z,90.10
2019-02-05T00:53:00.228Z,90.10
2019-02-05T00:53:33.232Z,90.10
2019-02-05T00:54:05.742Z,90.10
2019-02-05T00:54:38.668Z,89.90
2019-02-05T00:55:11.366Z,89.30
2019-02-05T00:55:43.860Z,89.40
2019-02-05T00:56:17.890Z,89.40
2019-02-05T00:56:50.683Z,90.00
2019-02-05T00:57:23.211Z,89.80
2019-02-05T00:57:55.689Z,89.20
2019-02-05T00:58:28.482Z,89.60
2019-02-05T00:59:00.964Z,89.10
2019-02-05T00:59:33.751Z,89.20
2019-02-05T01:00:20.220Z,89.10
2019-02-05T01:00:52.721Z,89.30
2019-02-05T01:01:25.216Z,89.80
2019-02-05T01:01:57.695Z,89.80
2019-02-05T01:02:30.516Z,89.70
2019-02-05T01:03:04.250Z,89.70
2019-02-05T01:03:36.734Z,89.30
2019-02-05T01:04:09.232Z,88.50
2019-02-05T01:04:42.029Z,88.50
2019-02-05T01:05:15.250Z,88.20
2019-02-05T01:05:47.831Z,88.30
2019-02-05T01:06:20.614Z,88.50
2019-02-05T01:06:53.388Z,88.40
2019-02-05T01:07:25.874Z,88.50
2019-02-05T01:07:58.394Z,88.40
2019-02-05T01:08:31.351Z,88.40
2019-02-05T01:09:06.378Z,88.50
2019-02-05T01:09:39.173Z,88.70
2019-02-05T01:10:12.437Z,88.50
2019-02-05T01:10:44.930Z,87.90
2019-02-05T01:11:17.498Z,88.10
2019-02-05T01:11:49.988Z,87.90
2019-02-05T01:12:22.485Z,87.70
2019-02-05T01:12:55.270Z,87.30
2019-02-05T01:13:27.791Z,87.20
2019-02-05T01:14:00.266Z,87.20
2019-02-05T01:14:32.870Z,88.00
2019-02-05T01:15:06.709Z,88.00
2019-02-05T01:15:39.178Z,87.90
2019-02-05T01:16:11.674Z,87.80
2019-02-05T01:16:44.355Z,87.10
2019-02-05T01:17:16.838Z,87.20
2019-02-05T01:17:50.091Z,86.80
2019-02-05T01:18:22.865Z,87.00
2019-02-05T01:18:55.393Z,87.10
2019-02-05T01:19:27.872Z,87.40
2019-02-05T01:20:00.364Z,87.90
2019-02-05T01:20:32.850Z,87.80
2019-02-05T01:21:05.342Z,87.50
2019-02-05T01:21:37.836Z,87.40
2019-02-05T01:22:10.339Z,87.20
2019-02-05T01:22:43.044Z,87.00
2019-02-05T01:23:15.544Z,87.00
2019-02-05T01:23:48.030Z,87.50
2019-02-05T01:24:20.538Z,87.40
2019-02-05T01:24:53.024Z,87.40
2019-02-05T01:25:25.555Z,87.30
2019-02-05T01:25:57.980Z,87.10
2019-02-05T01:26:31.164Z,86.90
2019-02-05T01:27:04.167Z,87.20
2019-02-05T01:27:36.643Z,87.30
2019-02-05T01:28:09.538Z,87.10
2019-02-05T01:28:42.112Z,86.70
2019-02-05T01:29:14.534Z,86.60
2019-02-05T01:29:47.051Z,86.20
2019-02-05T01:30:24.013Z,85.40
2019-02-05T01:30:56.487Z,85.40
2019-02-05T01:31:28.978Z,85.80
2019-02-05T01:32:01.489Z,85.70
2019-02-05T01:32:34.380Z,85.50
2019-02-05T01:33:06.967Z,85.30
2019-02-05T01:33:39.832Z,85.00
2019-02-05T01:34:12.682Z,85.10
2019-02-05T01:34:45.180Z,84.80
2019-02-05T01:35:17.670Z,84.80
2019-02-05T01:35:50.168Z,84.70
2019-02-05T01:36:22.994Z,84.50
2019-02-05T01:36:55.482Z,84.50
2019-02-05T01:37:28.234Z,84.60
2019-02-05T01:38:00.709Z,84.70
2019-02-05T01:38:33.195Z,84.70
2019-02-05T01:39:07.257Z,84.80
2019-02-05T01:39:40.034Z,85.00
2019-02-05T01:40:14.837Z,84.70
2019-02-05T01:40:47.966Z,84.70
2019-02-05T01:41:20.449Z,84.70
2019-02-05T01:41:53.318Z,84.20
2019-02-05T01:42:25.822Z,84.40
2019-02-05T01:42:58.294Z,84.70
2019-02-05T01:43:30.804Z,84.60
2019-02-05T01:44:03.397Z,84.80
2019-02-05T01:44:35.878Z,84.40
2019-02-05T01:45:11.431Z,84.30
2019-02-05T01:45:43.927Z,83.90
2019-02-05T01:46:16.786Z,83.60
2019-02-05T01:46:49.258Z,83.60
2019-02-05T01:47:21.742Z,83.90
2019-02-05T01:47:54.228Z,84.20
2019-02-05T01:48:26.754Z,84.10
2019-02-05T01:48:59.216Z,84.70
2019-02-05T01:49:31.716Z,83.60
2019-02-05T01:50:05.506Z,83.80
2019-02-05T01:50:38.127Z,84.10
2019-02-05T01:51:10.715Z,84.10
2019-02-05T01:51:43.374Z,83.90
2019-02-05T01:52:16.266Z,83.70
2019-02-05T01:52:48.763Z,83.50
2019-02-05T01:53:21.372Z,83.30
2019-02-05T01:53:53.858Z,83.20
2019-02-05T01:54:26.355Z,83.10
2019-02-05T01:54:58.838Z,83.00
2019-02-05T01:55:31.351Z,82.60
2019-02-05T01:56:03.822Z,82.60
2019-02-05T01:56:40.907Z,83.10
2019-02-05T01:57:10.652Z,83.50
2019-02-05T01:57:43.303Z,82.40
2019-02-05T01:58:15.784Z,82.30
2019-02-05T01:58:48.543Z,82.20
2019-02-05T01:59:21.696Z,82.00
2019-02-05T01:59:54.185Z,81.80
2019-02-05T02:00:30.706Z,81.30
2019-02-05T02:01:04.245Z,80.80
2019-02-05T02:01:36.728Z,81.10
2019-02-05T02:02:09.563Z,81.40
2019-02-05T02:02:42.178Z,81.10
2019-02-05T02:03:14.655Z,80.80
2019-02-05T02:03:47.327Z,81.00
2019-02-05T02:04:19.806Z,80.90
2019-02-05T02:04:52.569Z,81.00
2019-02-05T02:05:25.173Z,81.10
2019-02-05T02:05:57.809Z,81.60
2019-02-05T02:06:30.650Z,81.80
2019-02-05T02:07:03.465Z,82.00
2019-02-05T02:07:36.064Z,82.20
2019-02-05T02:08:08.567Z,81.10
2019-02-05T02:08:41.052Z,81.30
2019-02-05T02:09:13.520Z,81.20
2019-02-05T02:09:46.361Z,81.60
2019-02-05T02:10:24.127Z,81.00
2019-02-05T02:10:56.924Z,81.10
2019-02-05T02:11:29.433Z,80.80
2019-02-05T02:12:02.236Z,80.70
2019-02-05T02:12:35.180Z,80.80
2019-02-05T02:13:08.075Z,80.70
2019-02-05T02:13:40.595Z,80.50
2019-02-05T02:14:13.423Z,80.10
2019-02-05T02:14:46.587Z,80.40
2019-02-05T02:15:19.120Z,80.40
2019-02-05T02:15:51.622Z,80.10
2019-02-05T02:16:24.878Z,79.60
2019-02-05T02:16:57.373Z,79.30
2019-02-05T02:17:30.380Z,79.40
2019-02-05T02:18:02.962Z,79.30
2019-02-05T02:18:35.452Z,79.70
2019-02-05T02:19:07.970Z,79.70
2019-02-05T02:19:40.710Z,80.30
2019-02-05T02:20:15.571Z,80.80
2019-02-05T02:20:48.055Z,80.40
2019-02-05T02:21:21.550Z,80.90
2019-02-05T02:21:54.091Z,80.10
2019-02-05T02:22:26.522Z,80.00
2019-02-05T02:22:59.291Z,79.90
2019-02-05T02:23:31.913Z,79.90
2019-02-05T02:24:04.382Z,79.80
2019-02-05T02:24:37.173Z,79.40
2019-02-05T02:25:10.507Z,79.60
2019-02-05T02:25:43.005Z,79.30
2019-02-05T02:26:15.481Z,79.30
2019-02-05T02:26:52.130Z,79.00
2019-02-05T02:27:22.625Z,79.20
2019-02-05T02:27:55.416Z,79.20
2019-02-05T02:28:27.900Z,79.20
2019-02-05T02:29:00.786Z,79.20
2019-02-05T02:29:33.324Z,79.60
2019-02-05T02:30:10.583Z,79.70
2019-02-05T02:30:43.075Z,80.00
2019-02-05T02:31:15.583Z,78.70
2019-02-05T02:31:48.211Z,78.60
2019-02-05T02:32:20.815Z,78.60
2019-02-05T02:32:53.308Z,78.90
2019-02-05T02:33:25.803Z,78.90
2019-02-05T02:33:58.273Z,78.60
2019-02-05T02:34:31.023Z,78.40
2019-02-05T02:35:03.918Z,78.40
2019-02-05T02:35:36.430Z,78.50
2019-02-05T02:36:08.932Z,78.90
2019-02-05T02:36:41.419Z,79.40
2019-02-05T02:37:13.911Z,79.30
2019-02-05T02:37:46.409Z,79.30
2019-02-05T02:38:18.899Z,79.30
2019-02-05T02:38:51.650Z,79.20
2019-02-05T02:39:24.431Z,78.90
2019-02-05T02:39:56.908Z,78.60
2019-02-05T02:40:29.805Z,78.20
2019-02-05T02:41:02.383Z,78.30
2019-02-05T02:41:34.813Z,78.30
2019-02-05T02:42:07.786Z,78.50
2019-02-05T02:42:40.270Z,78.80
2019-02-05T02:43:12.754Z,79.20
2019-02-05T02:43:45.565Z,79.10
2019-02-05T02:44:18.309Z,78.50
2019-02-05T02:44:50.778Z,78.20
2019-02-05T02:45:23.269Z,77.30
2019-02-05T02:45:56.042Z,77.30
2019-02-05T02:46:28.543Z,77.00
2019-02-05T02:47:01.023Z,77.00
2019-02-05T02:47:33.524Z,77.40
2019-02-05T02:48:05.998Z,77.70
2019-02-05T02:48:39.053Z,77.70
2019-02-05T02:49:11.856Z,77.80
2019-02-05T02:49:44.874Z,77.90
2019-02-05T02:50:17.859Z,77.60
2019-02-05T02:50:51.493Z,77.30
2019-02-05T02:51:23.979Z,77.10
2019-02-05T02:51:56.647Z,77.20
2019-02-05T02:52:29.230Z,77.30
2019-02-05T02:53:01.718Z,77.20
2019-02-05T02:53:34.206Z,77.10
2019-02-05T02:54:06.839Z,77.40
2019-02-05T02:54:39.329Z,77.70
2019-02-05T02:55:12.218Z,78.00
2019-02-05T02:55:44.721Z,77.70
2019-02-05T02:56:17.206Z,77.50
2019-02-05T02:56:49.729Z,77.70
2019-02-05T02:57:22.577Z,77.40
2019-02-05T02:57:55.074Z,77.30
2019-02-05T02:58:27.945Z,77.30
2019-02-05T02:59:00.457Z,77.50
2019-02-05T02:59:32.954Z,77.30
2019-02-05T03:00:08.644Z,76.60
2019-02-05T03:00:41.145Z,76.50
2019-02-05T03:01:13.926Z,76.40
2019-02-05T03:01:46.428Z,76.60
2019-02-05T03:02:19.212Z,76.70
2019-02-05T03:02:51.743Z,76.40
2019-02-05T03:03:24.251Z,76.60
2019-02-05T03:03:56.798Z,76.90
2019-02-05T03:04:29.299Z,77.10
2019-02-05T03:05:02.256Z,77.30
2019-02-05T03:05:34.713Z,77.20
2019-02-05T03:06:07.197Z,77.10
2019-02-05T03:06:39.670Z,76.70
2019-02-05T03:07:12.176Z,76.60
2019-02-05T03:07:44.685Z,76.40
2019-02-05T03:08:17.189Z,76.40
2019-02-05T03:08:49.709Z,76.20
2019-02-05T03:09:23.211Z,75.90
2019-02-05T03:09:55.996Z,75.90
2019-02-05T03:10:30.060Z,75.90
2019-02-05T03:11:02.892Z,76.10
2019-02-05T03:11:35.588Z,75.90
2019-02-05T03:12:08.065Z,75.90
2019-02-05T03:12:40.549Z,75.20
2019-02-05T03:13:13.316Z,75.30
2019-02-05T03:13:46.191Z,75.30
2019-02-05T03:14:18.675Z,75.20
2019-02-05T03:14:51.680Z,75.30
2019-02-05T03:15:24.457Z,75.70
2019-02-05T03:15:57.228Z,75.70
2019-02-05T03:16:29.714Z,75.50
2019-02-05T03:17:02.207Z,75.80
2019-02-05T03:17:34.740Z,75.90
2019-02-05T03:18:07.214Z,76.00
2019-02-05T03:18:39.807Z,75.70
2019-02-05T03:19:12.698Z,75.10
2019-02-05T03:19:45.590Z,75.20
2019-02-05T03:20:18.437Z,74.30
2019-02-05T03:20:50.916Z,74.40
2019-02-05T03:21:23.394Z,74.60
2019-02-05T03:21:55.873Z,74.60
2019-02-05T03:22:28.688Z,74.50
2019-02-05T03:23:01.193Z,74.70
2019-02-05T03:23:33.653Z,74.70
2019-02-05T03:24:06.150Z,74.50
2019-02-05T03:24:38.655Z,74.30
2019-02-05T03:25:12.648Z,74.10
2019-02-05T03:25:45.127Z,74.30
2019-02-05T03:26:17.598Z,74.20
2019-02-05T03:26:50.090Z,73.90
2019-02-05T03:27:22.852Z,73.90
2019-02-05T03:27:55.643Z,74.10
2019-02-05T03:28:28.118Z,74.30
2019-02-05T03:29:00.872Z,74.10
2019-02-05T03:29:33.752Z,74.00
2019-02-05T03:30:08.643Z,73.80
2019-02-05T03:30:41.167Z,73.30
2019-02-05T03:31:13.668Z,73.40
2019-02-05T03:31:46.143Z,73.70
2019-02-05T03:32:18.956Z,74.10
2019-02-05T03:32:51.894Z,74.00
2019-02-05T03:33:24.373Z,74.30
2019-02-05T03:33:57.200Z,73.90
2019-02-05T03:34:29.699Z,73.90
2019-02-05T03:35:02.296Z,73.80
2019-02-05T03:35:34.802Z,73.60
2019-02-05T03:36:07.287Z,73.70
2019-02-05T03:36:39.783Z,73.80
2019-02-05T03:37:12.458Z,73.90
2019-02-05T03:37:45.315Z,73.60
2019-02-05T03:38:18.186Z,73.80
2019-02-05T03:38:50.654Z,73.90
2019-02-05T03:39:23.138Z,73.80
2019-02-05T03:39:55.621Z,73.20
2019-02-05T03:41:00.398Z,73.40
2019-02-05T03:41:32.901Z,73.40
2019-02-05T03:42:05.653Z,73.00
2019-02-05T03:42:38.149Z,73.10
2019-02-05T03:43:10.623Z,73.20
2019-02-05T03:43:43.466Z,73.00
2019-02-05T03:44:15.959Z,73.20
2019-02-05T03:44:48.450Z,73.40
2019-02-05T03:45:21.355Z,73.30
2019-02-05T03:45:55.375Z,73.20
2019-02-05T03:46:28.589Z,72.90
2019-02-05T03:47:01.075Z,72.50
2019-02-05T03:47:34.278Z,72.70
2019-02-05T03:48:07.142Z,72.90
2019-02-05T03:48:40.567Z,73.00
2019-02-05T03:49:13.561Z,73.00
2019-02-05T03:49:46.063Z,73.00
2019-02-05T03:50:18.761Z,72.90
2019-02-05T03:50:55.847Z,72.60
2019-02-05T03:51:54.087Z,72.70
2019-02-05T03:52:38.478Z,73.30
2019-02-05T03:53:11.613Z,72.90
2019-02-05T03:53:49.023Z,72.70
2019-02-05T03:54:56.181Z,72.50
2019-02-05T03:56:17.582Z,72.50
2019-02-05T03:57:30.963Z,72.20
2019-02-05T03:58:52.320Z,72.20
2019-02-05T04:00:24.697Z,72.50
2019-02-05T04:01:54.033Z,72.50
2019-02-05T04:02:57.869Z,72.60
2019-02-05T04:04:16.907Z,72.30
2019-02-05T04:05:32.537Z,72.40
2019-02-05T04:07:02.332Z,72.40
2019-02-05T04:08:19.820Z,72.30
2019-02-05T04:09:39.320Z,72.00
2019-02-05T04:10:38.098Z,71.90
2019-02-05T04:11:35.675Z,72.00
2019-02-05T04:12:23.601Z,72.20
2019-02-05T04:13:37.966Z,72.20
2019-02-05T04:14:50.839Z,71.80
2019-02-05T04:16:12.435Z,72.10
2019-02-05T04:17:23.851Z,71.70
2019-02-05T04:18:20.949Z,71.80
2019-02-05T04:19:50.591Z,72.00
2019-02-05T04:20:59.778Z,71.70
2019-02-05T04:22:20.247Z,71.10
2019-02-05T04:23:58.728Z,71.40
2019-02-05T04:25:14.862Z,71.90
2019-02-05T04:26:19.676Z,72.10
2019-02-05T04:27:29.873Z,72.00
2019-02-05T04:28:32.706Z,71.90
2019-02-05T04:29:40.624Z,71.90
2019-02-05T04:30:37.483Z,71.70
2019-02-05T04:31:40.713Z,71.60
2019-02-05T04:32:44.358Z,71.70
2019-02-05T04:33:52.072Z,71.50
2019-02-05T04:35:10.408Z,71.90
2019-02-05T04:36:24.487Z,71.00
2019-02-05T04:37:34.724Z,71.60
2019-02-05T04:38:55.205Z,71.20
2019-02-05T04:40:28.162Z,71.40
2019-02-05T04:41:45.342Z,71.70
2019-02-05T04:42:58.425Z,71.90
2019-02-05T04:44:05.891Z,71.90
2019-02-05T04:45:19.203Z,71.40
2019-02-05T04:46:08.874Z,71.40
2019-02-05T04:47:07.142Z,71.20
2019-02-05T04:48:29.652Z,71.40
2019-02-05T04:49:56.256Z,71.40
2019-02-05T04:51:01.117Z,71.30
2019-02-05T04:52:17.385Z,71.60
2019-02-05T04:53:17.066Z,71.20
2019-02-05T04:54:43.410Z,71.20
2019-02-05T04:55:52.360Z,70.90
2019-02-05T04:56:49.592Z,71.00
2019-02-05T06:16:04.030Z,72.90
2019-02-05T06:16:36.510Z,72.90
2019-02-05T06:17:09.008Z,72.70
2019-02-05T06:17:41.773Z,72.50
2019-02-05T06:18:14.261Z,72.60
2019-02-05T06:18:47.160Z,72.50
2019-02-05T06:19:19.665Z,72.50
2019-02-05T06:19:52.448Z,72.80
2019-02-05T06:20:24.976Z,72.80
2019-02-05T06:20:57.845Z,72.70
2019-02-05T06:21:30.362Z,73.00
2019-02-05T06:22:03.130Z,73.00
2019-02-05T06:22:35.613Z,72.80
2019-02-05T06:23:08.100Z,72.70
2019-02-05T06:23:40.587Z,72.70
2019-02-05T06:24:13.080Z,73.00
2019-02-05T06:24:45.582Z,72.90
2019-02-05T06:25:18.791Z,73.00
2019-02-05T06:25:51.304Z,73.00
2019-02-05T06:26:23.800Z,72.90
2019-02-05T06:26:56.312Z,72.80
2019-02-05T06:27:28.818Z,72.80
2019-02-05T06:28:01.618Z,72.90
2019-02-05T06:28:34.967Z,73.20
2019-02-05T06:29:07.610Z,73.30
2019-02-05T06:29:40.432Z,73.30
2019-02-05T06:30:14.275Z,73.40
2019-02-05T06:30:46.749Z,73.60
2019-02-05T06:31:19.640Z,73.60
2019-02-05T06:31:52.129Z,73.70
2019-02-05T06:32:24.639Z,73.80
2019-02-05T06:32:57.134Z,74.00
2019-02-05T06:33:29.650Z,74.20
2019-02-05T06:34:02.417Z,74.40
2019-02-05T06:34:34.919Z,74.50
2019-02-05T06:35:07.417Z,74.70
2019-02-05T06:35:40.258Z,74.80
2019-02-05T06:36:12.746Z,75.10
2019-02-05T06:36:45.242Z,75.10
2019-02-05T06:37:18.062Z,75.00
2019-02-05T06:37:50.589Z,74.90
2019-02-05T06:38:23.356Z,74.90
2019-02-05T06:38:55.849Z,75.00
2019-02-05T06:39:28.327Z,75.20
2019-02-05T06:40:00.936Z,75.30
2019-02-05T06:40:34.468Z,75.20
2019-02-05T06:41:06.952Z,75.50
2019-02-05T06:41:40.562Z,75.50
2019-02-05T06:42:13.031Z,75.70
2019-02-05T06:42:45.525Z,75.70
2019-02-05T06:43:18.040Z,76.00
2019-02-05T06:43:50.811Z,76.00
2019-02-05T06:44:23.598Z,75.80
2019-02-05T06:44:56.074Z,75.50
2019-02-05T06:45:28.563Z,75.50
2019-02-05T06:46:01.425Z,75.60
2019-02-05T06:46:34.180Z,75.70
2019-02-05T06:47:06.663Z,75.60
2019-02-05T06:47:39.215Z,75.60
2019-02-05T06:48:11.706Z,75.50
2019-02-05T06:48:44.221Z,75.60
2019-02-05T06:49:16.698Z,75.80
2019-02-05T06:49:49.744Z,75.80
2019-02-05T06:50:22.626Z,76.00
2019-02-05T06:50:56.901Z,76.30
2019-02-05T06:51:29.402Z,76.60
2019-02-05T06:52:01.895Z,76.60
2019-02-05T06:52:34.382Z,76.40
2019-02-05T06:53:06.881Z,76.50
2019-02-05T06:53:39.366Z,76.70
2019-02-05T06:54:12.178Z,76.70
2019-02-05T06:54:44.669Z,77.00
2019-02-05T06:55:17.493Z,77.50
2019-02-05T06:55:49.975Z,77.30
2019-02-05T06:56:22.464Z,77.20
2019-02-05T06:56:55.461Z,77.00
2019-02-05T06:57:28.214Z,77.00
2019-02-05T06:58:00.700Z,76.90
2019-02-05T06:58:33.171Z,77.10
2019-02-05T06:59:06.121Z,77.40
2019-02-05T06:59:38.637Z,77.40
2019-02-05T07:00:15.694Z,77.40
2019-02-05T07:00:48.168Z,78.10
2019-02-05T07:01:20.962Z,77.70
2019-02-05T07:01:53.479Z,77.80
2019-02-05T07:02:25.958Z,77.80
2019-02-05T07:02:58.551Z,77.90
2019-02-05T07:03:31.393Z,77.90
2019-02-05T07:04:04.440Z,77.90
2019-02-05T07:04:36.924Z,77.90
2019-02-05T07:05:09.914Z,78.00
2019-02-05T07:05:43.045Z,77.80
2019-02-05T07:06:15.558Z,78.00
2019-02-05T07:06:48.085Z,78.00
2019-02-05T07:07:20.601Z,78.30
2019-02-05T07:07:53.128Z,78.50
2019-02-05T07:08:25.665Z,78.40
2019-02-05T07:08:58.179Z,78.60
2019-02-05T07:09:30.687Z,78.80
2019-02-05T07:10:04.089Z,78.90
2019-02-05T07:10:36.819Z,79.00
2019-02-05T07:11:09.337Z,79.00
2019-02-05T07:11:42.245Z,78.90
2019-02-05T07:12:14.753Z,79.00
2019-02-05T07:12:47.356Z,79.30
2019-02-05T07:13:19.863Z,79.20
2019-02-05T07:13:52.671Z,79.40
2019-02-05T07:14:25.631Z,79.50
2019-02-05T07:14:58.557Z,80.30
2019-02-05T07:15:31.089Z,79.50
2019-02-05T07:16:03.900Z,79.40
2019-02-05T07:16:36.415Z,79.30
2019-02-05T07:17:08.975Z,79.20
2019-02-05T07:17:49.256Z,79.00
2019-02-05T07:18:16.171Z,79.10
2019-02-05T07:18:49.060Z,79.20
2019-02-05T07:19:22.398Z,79.30
2019-02-05T07:19:54.918Z,79.50
2019-02-05T07:20:27.442Z,79.90
2019-02-05T07:21:00.245Z,79.70
2019-02-05T07:21:32.788Z,79.70
2019-02-05T07:22:05.697Z,79.60
2019-02-05T07:22:38.232Z,79.60
2019-02-05T07:23:10.740Z,79.50
2019-02-05T07:23:43.255Z,79.50
2019-02-05T07:24:15.780Z,79.50
2019-02-05T07:24:48.272Z,79.80
2019-02-05T07:25:20.901Z,79.40
2019-02-05T07:25:53.817Z,79.50
2019-02-05T07:26:26.347Z,79.40
2019-02-05T07:26:58.900Z,79.30
2019-02-05T07:27:31.421Z,79.00
2019-02-05T07:28:04.039Z,79.10
2019-02-05T07:28:36.845Z,79.10
2019-02-05T07:29:09.364Z,78.80
2019-02-05T07:29:42.276Z,78.90
2019-02-05T07:30:20.364Z,79.00
2019-02-05T07:30:52.881Z,78.70
2019-02-05T07:31:25.576Z,78.50
2019-02-05T07:31:58.101Z,78.70
2019-02-05T07:32:31.046Z,78.70
2019-02-05T07:33:03.679Z,78.50
2019-02-05T07:33:36.195Z,78.40
2019-02-05T07:34:08.712Z,78.50
2019-02-05T07:34:41.215Z,78.40
2019-02-05T07:35:13.837Z,78.00
2019-02-05T07:35:46.353Z,78.10
2019-02-05T07:36:19.128Z,78.10
2019-02-05T07:36:51.643Z,77.90
2019-02-05T07:37:24.164Z,77.80
2019-02-05T07:37:56.778Z,77.50
2019-02-05T07:38:29.337Z,77.20
2019-02-05T07:39:01.921Z,77.20
2019-02-05T07:39:34.586Z,77.00
2019-02-05T07:40:09.716Z,77.10
2019-02-05T07:40:43.370Z,77.10
2019-02-05T07:41:15.883Z,76.80
2019-02-05T07:41:48.795Z,76.70
2019-02-05T07:42:21.303Z,77.10
2019-02-05T07:42:54.132Z,77.10
2019-02-05T07:43:26.843Z,76.60
2019-02-05T07:43:59.355Z,76.20
2019-02-05T07:44:32.290Z,76.50
2019-02-05T07:45:06.077Z,76.40
2019-02-05T07:45:38.598Z,76.30
2019-02-05T07:46:11.103Z,76.20
2019-02-05T07:46:43.756Z,75.90
2019-02-05T07:47:16.257Z,75.80
2019-02-05T07:47:48.892Z,75.70
2019-02-05T07:48:21.413Z,75.50
2019-02-05T07:48:54.250Z,75.40
2019-02-05T07:49:26.786Z,75.40
2019-02-05T07:49:59.584Z,75.30
2019-02-05T07:50:32.119Z,75.10
2019-02-05T07:51:04.626Z,74.90
2019-02-05T07:51:37.149Z,75.00
2019-02-05T07:52:09.674Z,75.10
2019-02-05T07:52:42.182Z,75.00
2019-02-05T07:53:14.998Z,75.10
2019-02-05T07:53:47.526Z,75.30
2019-02-05T07:54:20.085Z,75.10
2019-02-05T07:54:52.601Z,74.80
2019-02-05T07:55:25.104Z,74.90
2019-02-05T07:55:57.632Z,74.80
2019-02-05T07:56:30.158Z,74.80
2019-02-05T07:57:02.672Z,74.90
2019-02-05T07:57:35.191Z,74.40
2019-02-05T07:58:08.447Z,74.40
2019-02-05T07:58:40.949Z,74.20
2019-02-05T07:59:13.561Z,74.40
2019-02-05T07:59:47.220Z,74.30
2019-02-05T08:00:22.254Z,74.20
2019-02-05T08:00:55.174Z,74.50
2019-02-05T08:01:27.675Z,74.50
2019-02-05T08:02:00.222Z,74.50
2019-02-05T08:02:32.724Z,74.30
2019-02-05T08:03:05.323Z,74.20
2019-02-05T08:03:37.837Z,73.60
2019-02-05T08:04:10.374Z,73.60
2019-02-05T08:04:42.867Z,73.90
2019-02-05T08:05:17.689Z,73.90
2019-02-05T08:05:50.533Z,74.00
2019-02-05T08:06:23.365Z,74.00
2019-02-05T08:06:56.000Z,73.80
2019-02-05T08:07:28.796Z,73.60
2019-02-05T08:08:01.326Z,73.30
2019-02-05T08:08:34.253Z,72.90
2019-02-05T08:09:08.956Z,72.90
2019-02-05T08:09:41.877Z,72.80
2019-02-05T08:10:16.673Z,72.70
2019-02-05T08:10:49.357Z,72.80
2019-02-05T08:11:21.860Z,72.70
2019-02-05T08:11:54.384Z,72.50
2019-02-05T08:12:26.945Z,72.90
2019-02-05T08:12:59.587Z,72.30
2019-02-05T08:13:32.301Z,72.10
2019-02-05T08:14:06.204Z,72.20
2019-02-05T08:14:39.189Z,72.40
2019-02-05T08:15:13.529Z,72.40
2019-02-05T08:15:46.057Z,72.30
2019-02-05T08:16:18.677Z,72.20
2019-02-05T08:16:51.579Z,72.20
2019-02-05T08:17:24.454Z,72.10
2019-02-05T08:17:58.261Z,71.70
2019-02-05T08:18:30.915Z,71.80
2019-02-05T08:19:03.936Z,72.00
2019-02-05T08:19:36.486Z,72.10
2019-02-05T08:20:09.112Z,72.20
2019-02-05T08:20:41.621Z,72.20
2019-02-05T08:21:14.173Z,72.60
2019-02-05T08:21:47.112Z,73.10
2019-02-05T08:22:19.615Z,72.50
2019-02-05T08:22:52.541Z,72.20
2019-02-05T08:23:25.452Z,72.40
2019-02-05T08:23:57.985Z,72.20
2019-02-05T08:24:30.504Z,72.10
2019-02-05T08:25:03.724Z,72.30
2019-02-05T08:25:36.243Z,71.90
2019-02-05T08:26:08.961Z,71.90
2019-02-05T08:26:41.816Z,71.90
2019-02-05T08:27:14.677Z,71.70
2019-02-05T08:27:47.197Z,71.60
2019-02-05T08:28:19.692Z,71.70
2019-02-05T08:28:52.216Z,71.40
2019-02-05T08:29:24.729Z,71.30
2019-02-05T08:29:57.245Z,71.40
2019-02-05T08:30:41.264Z,71.50
2019-02-05T08:31:13.768Z,71.30
2019-02-05T08:31:46.283Z,71.50
2019-02-05T08:32:18.844Z,71.20
2019-02-05T08:32:51.729Z,71.20
2019-02-05T08:33:24.239Z,71.30
2019-02-05T08:33:56.810Z,71.60
2019-02-05T08:34:29.318Z,71.50
2019-02-05T08:35:01.842Z,71.50
2019-02-05T08:35:34.352Z,71.60
2019-02-05T08:36:07.248Z,71.80
2019-02-05T08:36:40.452Z,71.90
2019-02-05T08:37:13.417Z,71.80
2019-02-05T08:37:45.961Z,71.70
2019-02-05T08:38:18.478Z,72.00
2019-02-05T08:38:51.209Z,72.00
2019-02-05T08:39:23.713Z,71.60
2019-02-05T08:39:56.837Z,71.70
2019-02-05T08:40:29.347Z,71.40
2019-02-05T08:41:01.862Z,71.50
2019-02-05T08:41:34.368Z,71.80
2019-02-05T08:42:06.886Z,71.80
2019-02-05T08:42:39.420Z,71.90
2019-02-05T08:43:11.955Z,71.80
2019-02-05T08:43:44.480Z,71.90
2019-02-05T08:44:17.285Z,71.70
2019-02-05T08:44:49.817Z,71.80
2019-02-05T08:45:24.356Z,72.10
2019-02-05T08:45:57.112Z,72.10
2019-02-05T08:46:29.681Z,71.90
2019-02-05T08:47:02.209Z,71.80
2019-02-05T08:47:35.012Z,71.70
2019-02-05T08:48:09.111Z,71.80
2019-02-05T08:48:41.941Z,71.50
2019-02-05T08:49:14.873Z,71.40
2019-02-05T08:49:47.376Z,71.50
2019-02-05T08:50:21.851Z,71.70
2019-02-05T08:50:54.667Z,71.90
2019-02-05T08:51:27.625Z,72.10
2019-02-05T08:52:00.498Z,72.10
2019-02-05T08:52:33.077Z,71.70
2019-02-05T08:53:05.604Z,71.80
2019-02-05T08:53:38.141Z,71.90
2019-02-05T08:54:10.678Z,71.90
2019-02-05T08:54:43.467Z,72.10
2019-02-05T08:55:17.464Z,71.70
2019-02-05T08:55:49.971Z,71.50
2019-02-05T08:56:22.472Z,71.40
2019-02-05T08:56:54.991Z,71.60
2019-02-05T08:57:27.812Z,71.70
2019-02-05T08:58:02.835Z,71.50